sensor_id;sensor_type;location;lat;lon;timestamp;P1;durP1;ratioP1;P2;durP2;ratioP2
20697;SDS011;10508;50.956;4.640;2023-03-23T00:02:18;5.50;;;2.70;;
20697;SDS011;10508;50.956;4.640;2023-03-23T00:04:57;4.45;;;2.47;;
20697;SDS011;10508;50.956;4.640;2023-03-23T00:07:25;3.85;;;2.42;;
20697;SDS011;10508;50.956;4.640;2023-03-23T00:09:52;5.40;;;2.63;;
20697;SDS011;10508;50.956;4.640;2023-03-23T00:12:27;5.18;;;2.78;;
20697;SDS011;10508;50.956;4.640;2023-03-23T00:15:02;7.47;;;3.17;;
20697;SDS011;10508;50.956;4.640;2023-03-23T00:17:30;4.25;;;2.45;;
20697;SDS011;10508;50.956;4.640;2023-03-23T00:19:58;5.05;;;2.42;;
20697;SDS011;10508;50.956;4.640;2023-03-23T00:22:26;4.80;;;2.55;;
20697;SDS011;10508;50.956;4.640;2023-03-23T00:24:52;5.88;;;2.83;;
20697;SDS011;10508;50.956;4.640;2023-03-23T00:27:18;5.53;;;2.67;;
20697;SDS011;10508;50.956;4.640;2023-03-23T00:29:46;5.10;;;2.58;;
20697;SDS011;10508;50.956;4.640;2023-03-23T00:32:19;3.22;;;2.28;;
20697;SDS011;10508;50.956;4.640;2023-03-23T00:34:52;4.78;;;2.50;;
20697;SDS011;10508;50.956;4.640;2023-03-23T00:37:18;5.07;;;2.60;;
20697;SDS011;10508;50.956;4.640;2023-03-23T00:39:44;4.45;;;2.47;;
20697;SDS011;10508;50.956;4.640;2023-03-23T00:42:12;4.78;;;2.55;;
20697;SDS011;10508;50.956;4.640;2023-03-23T00:44:38;7.43;;;2.88;;
20697;SDS011;10508;50.956;4.640;2023-03-23T00:47:05;4.63;;;2.63;;
20697;SDS011;10508;50.956;4.640;2023-03-23T00:49:33;3.17;;;2.20;;
20697;SDS011;10508;50.956;4.640;2023-03-23T00:52:00;6.15;;;2.50;;
20697;SDS011;10508;50.956;4.640;2023-03-23T00:54:26;5.63;;;2.75;;
20697;SDS011;10508;50.956;4.640;2023-03-23T00:56:52;7.03;;;2.63;;
20697;SDS011;10508;50.956;4.640;2023-03-23T00:59:37;6.57;;;3.28;;
20697;SDS011;10508;50.956;4.640;2023-03-23T01:02:21;9.00;;;2.53;;
20697;SDS011;10508;50.956;4.640;2023-03-23T01:04:50;5.57;;;2.58;;
20697;SDS011;10508;50.956;4.640;2023-03-23T01:07:17;4.45;;;2.58;;
20697;SDS011;10508;50.956;4.640;2023-03-23T01:09:44;6.30;;;2.70;;
20697;SDS011;10508;50.956;4.640;2023-03-23T01:12:11;5.95;;;2.60;;
20697;SDS011;10508;50.956;4.640;2023-03-23T01:14:37;4.38;;;2.30;;
20697;SDS011;10508;50.956;4.640;2023-03-23T01:17:02;3.95;;;2.17;;
20697;SDS011;10508;50.956;4.640;2023-03-23T01:19:28;4.47;;;2.42;;
20697;SDS011;10508;50.956;4.640;2023-03-23T01:21:54;5.35;;;2.63;;
20697;SDS011;10508;50.956;4.640;2023-03-23T01:24:20;6.20;;;2.70;;
20697;SDS011;10508;50.956;4.640;2023-03-23T01:26:45;4.03;;;2.70;;
20697;SDS011;10508;50.956;4.640;2023-03-23T01:29:12;5.20;;;2.30;;
20697;SDS011;10508;50.956;4.640;2023-03-23T01:31:38;13.65;;;2.75;;
20697;SDS011;10508;50.956;4.640;2023-03-23T01:34:04;5.35;;;2.45;;
20697;SDS011;10508;50.956;4.640;2023-03-23T01:36:30;4.13;;;2.75;;
20697;SDS011;10508;50.956;4.640;2023-03-23T01:38:58;6.60;;;2.75;;
20697;SDS011;10508;50.956;4.640;2023-03-23T01:41:25;3.08;;;2.17;;
20697;SDS011;10508;50.956;4.640;2023-03-23T01:43:58;5.50;;;2.47;;
20697;SDS011;10508;50.956;4.640;2023-03-23T01:46:30;6.78;;;2.80;;
20697;SDS011;10508;50.956;4.640;2023-03-23T01:48:58;3.25;;;2.03;;
20697;SDS011;10508;50.956;4.640;2023-03-23T01:51:33;2.72;;;2.08;;
20697;SDS011;10508;50.956;4.640;2023-03-23T01:54:02;4.15;;;2.10;;
20697;SDS011;10508;50.956;4.640;2023-03-23T01:56:41;8.20;;;2.45;;
20697;SDS011;10508;50.956;4.640;2023-03-23T01:59:12;4.22;;;2.22;;
20697;SDS011;10508;50.956;4.640;2023-03-23T02:01:38;4.65;;;2.17;;
20697;SDS011;10508;50.956;4.640;2023-03-23T02:04:11;5.50;;;2.35;;
20697;SDS011;10508;50.956;4.640;2023-03-23T02:06:39;4.25;;;1.90;;
20697;SDS011;10508;50.956;4.640;2023-03-23T02:09:05;3.35;;;2.33;;
20697;SDS011;10508;50.956;4.640;2023-03-23T02:11:31;5.85;;;2.35;;
20697;SDS011;10508;50.956;4.640;2023-03-23T02:13:58;6.47;;;2.10;;
20697;SDS011;10508;50.956;4.640;2023-03-23T02:16:32;4.32;;;2.00;;
20697;SDS011;10508;50.956;4.640;2023-03-23T02:33:17;3.75;;;2.58;;
20697;SDS011;10508;50.956;4.640;2023-03-23T02:39:00;2.90;;;1.80;;
20697;SDS011;10508;50.956;4.640;2023-03-23T02:41:32;4.75;;;2.20;;
20697;SDS011;10508;50.956;4.640;2023-03-23T02:44:05;4.20;;;2.25;;
20697;SDS011;10508;50.956;4.640;2023-03-23T02:46:32;6.95;;;1.85;;
20697;SDS011;10508;50.956;4.640;2023-03-23T02:49:00;6.90;;;1.42;;
20697;SDS011;10508;50.956;4.640;2023-03-23T02:51:28;6.78;;;1.85;;
20697;SDS011;10508;50.956;4.640;2023-03-23T02:53:54;4.18;;;1.40;;
20697;SDS011;10508;50.956;4.640;2023-03-23T02:56:23;4.47;;;1.13;;
20697;SDS011;10508;50.956;4.640;2023-03-23T02:58:52;2.33;;;1.15;;
20697;SDS011;10508;50.956;4.640;2023-03-23T03:03:51;2.17;;;1.30;;
20697;SDS011;10508;50.956;4.640;2023-03-23T03:06:24;4.65;;;1.55;;
20697;SDS011;10508;50.956;4.640;2023-03-23T03:11:31;5.13;;;1.40;;
20697;SDS011;10508;50.956;4.640;2023-03-23T03:14:03;3.25;;;1.17;;
20697;SDS011;10508;50.956;4.640;2023-03-23T03:16:48;4.28;;;1.20;;
20697;SDS011;10508;50.956;4.640;2023-03-23T03:19:25;3.78;;;0.95;;
20697;SDS011;10508;50.956;4.640;2023-03-23T03:21:54;3.17;;;1.23;;
20697;SDS011;10508;50.956;4.640;2023-03-23T03:24:26;4.68;;;1.10;;
20697;SDS011;10508;50.956;4.640;2023-03-23T03:26:54;6.32;;;1.70;;
20697;SDS011;10508;50.956;4.640;2023-03-23T03:29:28;3.60;;;1.20;;
20697;SDS011;10508;50.956;4.640;2023-03-23T03:31:57;4.53;;;1.10;;
20697;SDS011;10508;50.956;4.640;2023-03-23T03:34:24;2.97;;;1.50;;
20697;SDS011;10508;50.956;4.640;2023-03-23T03:36:51;7.60;;;1.25;;
20697;SDS011;10508;50.956;4.640;2023-03-23T03:39:19;5.88;;;1.00;;
20697;SDS011;10508;50.956;4.640;2023-03-23T03:41:46;6.05;;;0.98;;
20697;SDS011;10508;50.956;4.640;2023-03-23T03:46:46;3.22;;;0.90;;
20697;SDS011;10508;50.956;4.640;2023-03-23T03:49:12;5.40;;;1.15;;
20697;SDS011;10508;50.956;4.640;2023-03-23T03:51:38;1.30;;;0.60;;
20697;SDS011;10508;50.956;4.640;2023-03-23T03:54:04;3.85;;;0.88;;
20697;SDS011;10508;50.956;4.640;2023-03-23T03:56:30;6.82;;;1.00;;
20697;SDS011;10508;50.956;4.640;2023-03-23T03:59:05;4.88;;;1.08;;
20697;SDS011;10508;50.956;4.640;2023-03-23T04:01:33;6.03;;;1.05;;
20697;SDS011;10508;50.956;4.640;2023-03-23T04:03:59;5.75;;;1.30;;
20697;SDS011;10508;50.956;4.640;2023-03-23T04:06:25;2.40;;;0.80;;
20697;SDS011;10508;50.956;4.640;2023-03-23T04:08:53;4.53;;;1.10;;
20697;SDS011;10508;50.956;4.640;2023-03-23T04:11:23;4.53;;;1.30;;
20697;SDS011;10508;50.956;4.640;2023-03-23T04:13:50;3.17;;;1.52;;
20697;SDS011;10508;50.956;4.640;2023-03-23T04:16:31;4.05;;;1.70;;
20697;SDS011;10508;50.956;4.640;2023-03-23T04:18:59;4.28;;;1.45;;
20697;SDS011;10508;50.956;4.640;2023-03-23T04:21:25;5.93;;;1.50;;
20697;SDS011;10508;50.956;4.640;2023-03-23T04:23:54;6.28;;;1.65;;
20697;SDS011;10508;50.956;4.640;2023-03-23T04:26:26;2.38;;;1.27;;
20697;SDS011;10508;50.956;4.640;2023-03-23T04:28:55;5.90;;;2.03;;
20697;SDS011;10508;50.956;4.640;2023-03-23T04:31:21;5.68;;;1.55;;
20697;SDS011;10508;50.956;4.640;2023-03-23T04:33:49;4.78;;;1.27;;
20697;SDS011;10508;50.956;4.640;2023-03-23T04:36:19;3.58;;;0.98;;
20697;SDS011;10508;50.956;4.640;2023-03-23T04:38:47;5.97;;;1.08;;
20697;SDS011;10508;50.956;4.640;2023-03-23T04:41:15;7.00;;;1.70;;
20697;SDS011;10508;50.956;4.640;2023-03-23T04:43:40;7.85;;;1.40;;
20697;SDS011;10508;50.956;4.640;2023-03-23T04:46:07;12.77;;;1.17;;
20697;SDS011;10508;50.956;4.640;2023-03-23T04:48:34;6.50;;;1.15;;
20697;SDS011;10508;50.956;4.640;2023-03-23T04:51:01;4.75;;;0.88;;
20697;SDS011;10508;50.956;4.640;2023-03-23T04:53:29;12.52;;;1.95;;
20697;SDS011;10508;50.956;4.640;2023-03-23T04:55:55;6.72;;;1.42;;
20697;SDS011;10508;50.956;4.640;2023-03-23T04:58:21;6.68;;;0.95;;
20697;SDS011;10508;50.956;4.640;2023-03-23T05:00:49;7.07;;;1.20;;
20697;SDS011;10508;50.956;4.640;2023-03-23T05:03:16;15.18;;;1.00;;
20697;SDS011;10508;50.956;4.640;2023-03-23T05:05:42;6.65;;;1.15;;
20697;SDS011;10508;50.956;4.640;2023-03-23T05:08:11;5.72;;;1.38;;
20697;SDS011;10508;50.956;4.640;2023-03-23T05:10:38;8.85;;;1.15;;
20697;SDS011;10508;50.956;4.640;2023-03-23T05:13:04;5.65;;;1.08;;
20697;SDS011;10508;50.956;4.640;2023-03-23T05:15:29;10.95;;;1.67;;
20697;SDS011;10508;50.956;4.640;2023-03-23T05:17:55;7.40;;;1.38;;
20697;SDS011;10508;50.956;4.640;2023-03-23T05:20:21;4.30;;;1.13;;
20697;SDS011;10508;50.956;4.640;2023-03-23T05:22:47;7.00;;;1.23;;
20697;SDS011;10508;50.956;4.640;2023-03-23T05:25:14;4.47;;;1.30;;
20697;SDS011;10508;50.956;4.640;2023-03-23T05:27:44;3.70;;;1.00;;
20697;SDS011;10508;50.956;4.640;2023-03-23T05:30:14;4.13;;;1.00;;
20697;SDS011;10508;50.956;4.640;2023-03-23T05:32:41;5.30;;;1.40;;
20697;SDS011;10508;50.956;4.640;2023-03-23T05:35:10;8.93;;;1.17;;
20697;SDS011;10508;50.956;4.640;2023-03-23T05:37:37;9.70;;;2.35;;
20697;SDS011;10508;50.956;4.640;2023-03-23T05:40:03;7.68;;;1.17;;
20697;SDS011;10508;50.956;4.640;2023-03-23T05:42:34;8.52;;;1.25;;
20697;SDS011;10508;50.956;4.640;2023-03-23T05:45:01;3.50;;;0.90;;
20697;SDS011;10508;50.956;4.640;2023-03-23T05:47:28;3.97;;;0.93;;
20697;SDS011;10508;50.956;4.640;2023-03-23T05:49:54;3.35;;;1.30;;
20697;SDS011;10508;50.956;4.640;2023-03-23T05:52:20;8.25;;;1.50;;
20697;SDS011;10508;50.956;4.640;2023-03-23T05:54:45;2.30;;;0.95;;
20697;SDS011;10508;50.956;4.640;2023-03-23T05:57:11;4.07;;;0.82;;
20697;SDS011;10508;50.956;4.640;2023-03-23T05:59:37;4.97;;;1.00;;
20697;SDS011;10508;50.956;4.640;2023-03-23T06:02:03;3.72;;;1.45;;
20697;SDS011;10508;50.956;4.640;2023-03-23T06:04:31;8.43;;;1.10;;
20697;SDS011;10508;50.956;4.640;2023-03-23T06:06:59;2.78;;;1.00;;
20697;SDS011;10508;50.956;4.640;2023-03-23T06:09:26;3.85;;;1.02;;
20697;SDS011;10508;50.956;4.640;2023-03-23T06:11:51;3.78;;;1.58;;
20697;SDS011;10508;50.956;4.640;2023-03-23T06:14:17;5.95;;;1.00;;
20697;SDS011;10508;50.956;4.640;2023-03-23T06:16:43;9.27;;;1.55;;
20697;SDS011;10508;50.956;4.640;2023-03-23T06:19:08;3.75;;;1.00;;
20697;SDS011;10508;50.956;4.640;2023-03-23T06:21:36;3.47;;;1.42;;
20697;SDS011;10508;50.956;4.640;2023-03-23T06:24:02;2.47;;;1.20;;
20697;SDS011;10508;50.956;4.640;2023-03-23T06:26:30;11.80;;;1.63;;
20697;SDS011;10508;50.956;4.640;2023-03-23T06:29:01;10.25;;;4.15;;
20697;SDS011;10508;50.956;4.640;2023-03-23T06:31:28;4.32;;;2.10;;
20697;SDS011;10508;50.956;4.640;2023-03-23T06:33:54;6.22;;;1.25;;
20697;SDS011;10508;50.956;4.640;2023-03-23T06:36:20;7.72;;;2.20;;
20697;SDS011;10508;50.956;4.640;2023-03-23T06:38:45;12.40;;;1.42;;
20697;SDS011;10508;50.956;4.640;2023-03-23T06:41:30;6.93;;;1.33;;
20697;SDS011;10508;50.956;4.640;2023-03-23T06:43:57;4.70;;;1.13;;
20697;SDS011;10508;50.956;4.640;2023-03-23T06:46:23;6.80;;;1.50;;
20697;SDS011;10508;50.956;4.640;2023-03-23T06:48:49;4.55;;;1.20;;
20697;SDS011;10508;50.956;4.640;2023-03-23T06:51:15;4.35;;;1.52;;
20697;SDS011;10508;50.956;4.640;2023-03-23T06:53:42;10.35;;;1.58;;
20697;SDS011;10508;50.956;4.640;2023-03-23T06:56:08;3.55;;;1.13;;
20697;SDS011;10508;50.956;4.640;2023-03-23T06:58:34;7.35;;;1.02;;
20697;SDS011;10508;50.956;4.640;2023-03-23T07:01:00;7.45;;;1.35;;
20697;SDS011;10508;50.956;4.640;2023-03-23T07:03:26;8.68;;;1.42;;
20697;SDS011;10508;50.956;4.640;2023-03-23T07:05:53;10.00;;;1.35;;
20697;SDS011;10508;50.956;4.640;2023-03-23T07:08:19;6.50;;;1.20;;
20697;SDS011;10508;50.956;4.640;2023-03-23T07:10:45;8.77;;;1.25;;
20697;SDS011;10508;50.956;4.640;2023-03-23T07:13:11;3.33;;;0.52;;
20697;SDS011;10508;50.956;4.640;2023-03-23T07:15:38;1.75;;;0.32;;
20697;SDS011;10508;50.956;4.640;2023-03-23T07:18:04;2.22;;;0.30;;
20697;SDS011;10508;50.956;4.640;2023-03-23T07:20:49;1.70;;;0.43;;
20697;SDS011;10508;50.956;4.640;2023-03-23T07:23:16;3.70;;;0.63;;
20697;SDS011;10508;50.956;4.640;2023-03-23T07:25:43;3.30;;;0.63;;
20697;SDS011;10508;50.956;4.640;2023-03-23T07:28:10;0.75;;;0.22;;
20697;SDS011;10508;50.956;4.640;2023-03-23T07:30:37;2.72;;;0.40;;
20697;SDS011;10508;50.956;4.640;2023-03-23T07:33:04;1.02;;;0.80;;
20697;SDS011;10508;50.956;4.640;2023-03-23T07:35:31;1.85;;;0.50;;
20697;SDS011;10508;50.956;4.640;2023-03-23T07:37:56;1.95;;;0.63;;
20697;SDS011;10508;50.956;4.640;2023-03-23T07:40:22;4.13;;;0.50;;
20697;SDS011;10508;50.956;4.640;2023-03-23T07:42:51;0.57;;;0.20;;
20697;SDS011;10508;50.956;4.640;2023-03-23T07:45:19;3.03;;;0.55;;
20697;SDS011;10508;50.956;4.640;2023-03-23T07:47:46;2.83;;;0.40;;
20697;SDS011;10508;50.956;4.640;2023-03-23T07:50:11;3.22;;;0.38;;
20697;SDS011;10508;50.956;4.640;2023-03-23T07:52:38;0.30;;;0.20;;
20697;SDS011;10508;50.956;4.640;2023-03-23T07:55:06;4.00;;;0.35;;
20697;SDS011;10508;50.956;4.640;2023-03-23T07:57:34;2.00;;;0.47;;
20697;SDS011;10508;50.956;4.640;2023-03-23T08:00:00;2.90;;;0.52;;
20697;SDS011;10508;50.956;4.640;2023-03-23T08:02:25;1.20;;;0.52;;
20697;SDS011;10508;50.956;4.640;2023-03-23T08:04:52;2.55;;;0.70;;
20697;SDS011;10508;50.956;4.640;2023-03-23T08:07:18;3.83;;;0.70;;
20697;SDS011;10508;50.956;4.640;2023-03-23T08:09:44;3.90;;;0.73;;
20697;SDS011;10508;50.956;4.640;2023-03-23T08:12:11;4.97;;;0.80;;
20697;SDS011;10508;50.956;4.640;2023-03-23T08:14:37;1.67;;;0.75;;
20697;SDS011;10508;50.956;4.640;2023-03-23T08:17:05;0.93;;;0.70;;
20697;SDS011;10508;50.956;4.640;2023-03-23T08:19:30;3.42;;;0.65;;
20697;SDS011;10508;50.956;4.640;2023-03-23T08:22:13;4.30;;;0.73;;
20697;SDS011;10508;50.956;4.640;2023-03-23T08:24:38;3.22;;;0.95;;
20697;SDS011;10508;50.956;4.640;2023-03-23T08:27:07;3.20;;;0.80;;
20697;SDS011;10508;50.956;4.640;2023-03-23T08:29:33;5.00;;;0.90;;
20697;SDS011;10508;50.956;4.640;2023-03-23T08:31:58;2.30;;;0.60;;
20697;SDS011;10508;50.956;4.640;2023-03-23T08:34:24;3.83;;;0.90;;
20697;SDS011;10508;50.956;4.640;2023-03-23T08:36:50;2.90;;;1.25;;
20697;SDS011;10508;50.956;4.640;2023-03-23T08:39:16;4.13;;;1.05;;
20697;SDS011;10508;50.956;4.640;2023-03-23T08:41:43;3.85;;;1.13;;
20697;SDS011;10508;50.956;4.640;2023-03-23T08:44:09;3.30;;;0.73;;
20697;SDS011;10508;50.956;4.640;2023-03-23T08:46:35;6.38;;;1.00;;
20697;SDS011;10508;50.956;4.640;2023-03-23T08:49:01;4.78;;;0.95;;
20697;SDS011;10508;50.956;4.640;2023-03-23T08:51:27;3.42;;;0.80;;
20697;SDS011;10508;50.956;4.640;2023-03-23T08:53:52;4.47;;;0.80;;
20697;SDS011;10508;50.956;4.640;2023-03-23T08:56:19;2.58;;;0.80;;
20697;SDS011;10508;50.956;4.640;2023-03-23T08:58:45;1.52;;;0.50;;
20697;SDS011;10508;50.956;4.640;2023-03-23T09:01:11;2.08;;;0.65;;
20697;SDS011;10508;50.956;4.640;2023-03-23T09:03:36;3.17;;;0.40;;
20697;SDS011;10508;50.956;4.640;2023-03-23T09:06:04;2.22;;;0.80;;
20697;SDS011;10508;50.956;4.640;2023-03-23T09:08:31;4.90;;;0.93;;
20697;SDS011;10508;50.956;4.640;2023-03-23T09:10:58;2.53;;;0.52;;
20697;SDS011;10508;50.956;4.640;2023-03-23T09:13:24;2.22;;;0.80;;
20697;SDS011;10508;50.956;4.640;2023-03-23T09:15:50;1.92;;;0.88;;
20697;SDS011;10508;50.956;4.640;2023-03-23T09:18:17;2.72;;;0.70;;
20697;SDS011;10508;50.956;4.640;2023-03-23T09:20:43;2.20;;;1.00;;
20697;SDS011;10508;50.956;4.640;2023-03-23T09:23:10;5.30;;;1.30;;
20697;SDS011;10508;50.956;4.640;2023-03-23T09:25:38;4.85;;;0.80;;
20697;SDS011;10508;50.956;4.640;2023-03-23T09:28:04;5.78;;;0.77;;
20697;SDS011;10508;50.956;4.640;2023-03-23T09:30:31;1.10;;;0.70;;
20697;SDS011;10508;50.956;4.640;2023-03-23T09:32:59;3.35;;;0.80;;
20697;SDS011;10508;50.956;4.640;2023-03-23T09:35:29;3.55;;;0.82;;
20697;SDS011;10508;50.956;4.640;2023-03-23T09:37:56;2.33;;;0.57;;
20697;SDS011;10508;50.956;4.640;2023-03-23T09:40:30;3.15;;;0.73;;
20697;SDS011;10508;50.956;4.640;2023-03-23T09:45:41;2.25;;;0.60;;
20697;SDS011;10508;50.956;4.640;2023-03-23T09:48:33;2.47;;;1.00;;
20697;SDS011;10508;50.956;4.640;2023-03-23T09:53:50;2.80;;;0.70;;
20697;SDS011;10508;50.956;4.640;2023-03-23T09:56:19;3.88;;;0.80;;
20697;SDS011;10508;50.956;4.640;2023-03-23T09:58:55;2.58;;;0.60;;
20697;SDS011;10508;50.956;4.640;2023-03-23T10:01:26;1.98;;;0.70;;
20697;SDS011;10508;50.956;4.640;2023-03-23T10:04:07;1.67;;;0.70;;
20697;SDS011;10508;50.956;4.640;2023-03-23T10:06:46;3.55;;;1.15;;
20697;SDS011;10508;50.956;4.640;2023-03-23T10:09:14;4.15;;;0.80;;
20697;SDS011;10508;50.956;4.640;2023-03-23T10:12:02;2.33;;;0.88;;
20697;SDS011;10508;50.956;4.640;2023-03-23T10:17:27;1.70;;;0.75;;
20697;SDS011;10508;50.956;4.640;2023-03-23T10:20:09;4.20;;;0.82;;
20697;SDS011;10508;50.956;4.640;2023-03-23T10:23:13;7.30;;;0.85;;
20697;SDS011;10508;50.956;4.640;2023-03-23T10:25:52;3.60;;;0.63;;
20697;SDS011;10508;50.956;4.640;2023-03-23T10:28:45;4.22;;;1.13;;
20697;SDS011;10508;50.956;4.640;2023-03-23T10:31:35;1.95;;;0.98;;
20697;SDS011;10508;50.956;4.640;2023-03-23T10:34:09;2.25;;;0.85;;
20697;SDS011;10508;50.956;4.640;2023-03-23T10:36:41;6.88;;;1.27;;
20697;SDS011;10508;50.956;4.640;2023-03-23T10:39:21;4.97;;;1.00;;
20697;SDS011;10508;50.956;4.640;2023-03-23T10:41:49;2.97;;;1.23;;
20697;SDS011;10508;50.956;4.640;2023-03-23T10:44:23;6.80;;;1.27;;
20697;SDS011;10508;50.956;4.640;2023-03-23T10:46:57;2.40;;;0.70;;
20697;SDS011;10508;50.956;4.640;2023-03-23T10:57:20;3.28;;;1.02;;
20697;SDS011;10508;50.956;4.640;2023-03-23T10:59:49;3.42;;;1.15;;
20697;SDS011;10508;50.956;4.640;2023-03-23T11:02:18;12.23;;;1.67;;
20697;SDS011;10508;50.956;4.640;2023-03-23T11:04:59;7.10;;;1.17;;
20697;SDS011;10508;50.956;4.640;2023-03-23T11:07:31;3.35;;;1.13;;
20697;SDS011;10508;50.956;4.640;2023-03-23T11:10:22;4.82;;;1.17;;
20697;SDS011;10508;50.956;4.640;2023-03-23T11:12:50;7.78;;;1.95;;
20697;SDS011;10508;50.956;4.640;2023-03-23T11:15:32;8.55;;;1.60;;
20697;SDS011;10508;50.956;4.640;2023-03-23T11:18:02;15.38;;;2.20;;
20697;SDS011;10508;50.956;4.640;2023-03-23T11:20:32;6.88;;;1.50;;
20697;SDS011;10508;50.956;4.640;2023-03-23T11:23:10;7.78;;;1.58;;
20697;SDS011;10508;50.956;4.640;2023-03-23T11:28:43;8.30;;;1.40;;
20697;SDS011;10508;50.956;4.640;2023-03-23T11:31:35;5.03;;;1.58;;
20697;SDS011;10508;50.956;4.640;2023-03-23T11:36:47;3.75;;;1.02;;
20697;SDS011;10508;50.956;4.640;2023-03-23T11:39:28;5.00;;;1.20;;
20697;SDS011;10508;50.956;4.640;2023-03-23T11:41:59;10.32;;;1.63;;
20697;SDS011;10508;50.956;4.640;2023-03-23T11:44:40;10.95;;;2.10;;
20697;SDS011;10508;50.956;4.640;2023-03-23T11:55:16;7.65;;;1.27;;
20697;SDS011;10508;50.956;4.640;2023-03-23T11:57:47;5.15;;;1.90;;
20697;SDS011;10508;50.956;4.640;2023-03-23T12:06:00;4.70;;;1.48;;
20697;SDS011;10508;50.956;4.640;2023-03-23T12:14:11;3.45;;;0.90;;
20697;SDS011;10508;50.956;4.640;2023-03-23T12:22:08;5.07;;;1.20;;
20697;SDS011;10508;50.956;4.640;2023-03-23T12:27:25;6.43;;;1.33;;
20697;SDS011;10508;50.956;4.640;2023-03-23T12:30:13;3.63;;;0.88;;
20697;SDS011;10508;50.956;4.640;2023-03-23T12:32:52;9.77;;;1.27;;
20697;SDS011;10508;50.956;4.640;2023-03-23T12:44:06;2.88;;;1.30;;
20697;SDS011;10508;50.956;4.640;2023-03-23T12:54:44;6.47;;;1.30;;
20697;SDS011;10508;50.956;4.640;2023-03-23T13:00:13;4.00;;;1.13;;
20697;SDS011;10508;50.956;4.640;2023-03-23T13:05:41;5.20;;;1.42;;
20697;SDS011;10508;50.956;4.640;2023-03-23T13:08:25;8.98;;;1.55;;
20697;SDS011;10508;50.956;4.640;2023-03-23T13:10:56;3.17;;;1.00;;
20697;SDS011;10508;50.956;4.640;2023-03-23T13:19:05;4.65;;;1.00;;
20697;SDS011;10508;50.956;4.640;2023-03-23T13:22:14;6.55;;;1.45;;
20697;SDS011;10508;50.956;4.640;2023-03-23T13:24:54;5.45;;;1.33;;
20697;SDS011;10508;50.956;4.640;2023-03-23T13:27:23;14.90;;;1.80;;
20697;SDS011;10508;50.956;4.640;2023-03-23T13:29:56;13.55;;;2.60;;
20697;SDS011;10508;50.956;4.640;2023-03-23T13:35:03;9.32;;;1.58;;
20697;SDS011;10508;50.956;4.640;2023-03-23T13:37:31;4.75;;;0.98;;
20697;SDS011;10508;50.956;4.640;2023-03-23T13:42:47;8.05;;;1.95;;
20697;SDS011;10508;50.956;4.640;2023-03-23T13:45:35;6.25;;;1.30;;
20697;SDS011;10508;50.956;4.640;2023-03-23T13:50:49;6.47;;;1.40;;
20697;SDS011;10508;50.956;4.640;2023-03-23T13:53:30;6.10;;;1.15;;
20697;SDS011;10508;50.956;4.640;2023-03-23T13:56:15;13.55;;;1.80;;
20697;SDS011;10508;50.956;4.640;2023-03-23T13:58:51;3.85;;;1.00;;
20697;SDS011;10508;50.956;4.640;2023-03-23T14:01:34;3.38;;;1.02;;
20697;SDS011;10508;50.956;4.640;2023-03-23T14:04:01;3.88;;;1.20;;
20697;SDS011;10508;50.956;4.640;2023-03-23T14:06:34;9.65;;;1.40;;
20697;SDS011;10508;50.956;4.640;2023-03-23T14:09:05;6.78;;;1.35;;
20697;SDS011;10508;50.956;4.640;2023-03-23T14:14:32;7.25;;;1.65;;
20697;SDS011;10508;50.956;4.640;2023-03-23T14:17:10;10.10;;;1.83;;
20697;SDS011;10508;50.956;4.640;2023-03-23T14:19:42;13.07;;;1.65;;
20697;SDS011;10508;50.956;4.640;2023-03-23T14:24:44;12.13;;;1.52;;
20697;SDS011;10508;50.956;4.640;2023-03-23T14:27:12;7.88;;;0.90;;
20697;SDS011;10508;50.956;4.640;2023-03-23T14:29:38;2.90;;;1.00;;
20697;SDS011;10508;50.956;4.640;2023-03-23T14:32:05;3.58;;;1.02;;
20697;SDS011;10508;50.956;4.640;2023-03-23T14:34:32;5.63;;;1.38;;
20697;SDS011;10508;50.956;4.640;2023-03-23T14:37:00;23.23;;;2.70;;
20697;SDS011;10508;50.956;4.640;2023-03-23T14:39:30;8.40;;;1.88;;
20697;SDS011;10508;50.956;4.640;2023-03-23T14:42:03;7.95;;;1.00;;
20697;SDS011;10508;50.956;4.640;2023-03-23T14:44:34;4.50;;;1.80;;
20697;SDS011;10508;50.956;4.640;2023-03-23T14:47:05;5.30;;;1.63;;
20697;SDS011;10508;50.956;4.640;2023-03-23T14:49:41;7.40;;;1.80;;
20697;SDS011;10508;50.956;4.640;2023-03-23T14:54:36;3.40;;;1.02;;
20697;SDS011;10508;50.956;4.640;2023-03-23T14:57:13;4.05;;;1.33;;
20697;SDS011;10508;50.956;4.640;2023-03-23T14:59:44;3.85;;;1.20;;
20697;SDS011;10508;50.956;4.640;2023-03-23T15:02:20;4.82;;;0.98;;
20697;SDS011;10508;50.956;4.640;2023-03-23T15:04:48;6.00;;;1.30;;
20697;SDS011;10508;50.956;4.640;2023-03-23T15:07:17;8.70;;;1.60;;
20697;SDS011;10508;50.956;4.640;2023-03-23T15:09:45;6.68;;;1.27;;
20697;SDS011;10508;50.956;4.640;2023-03-23T15:12:21;7.00;;;1.60;;
20697;SDS011;10508;50.956;4.640;2023-03-23T15:14:53;9.48;;;2.00;;
20697;SDS011;10508;50.956;4.640;2023-03-23T15:17:24;6.80;;;1.73;;
20697;SDS011;10508;50.956;4.640;2023-03-23T15:19:54;7.72;;;1.40;;
20697;SDS011;10508;50.956;4.640;2023-03-23T15:22:27;6.43;;;1.42;;
20697;SDS011;10508;50.956;4.640;2023-03-23T15:25:28;4.70;;;1.10;;
20697;SDS011;10508;50.956;4.640;2023-03-23T15:32:52;6.68;;;1.27;;
20697;SDS011;10508;50.956;4.640;2023-03-23T15:35:22;10.45;;;1.88;;
20697;SDS011;10508;50.956;4.640;2023-03-23T15:38:00;6.88;;;1.35;;
20697;SDS011;10508;50.956;4.640;2023-03-23T15:40:31;5.28;;;1.10;;
20697;SDS011;10508;50.956;4.640;2023-03-23T15:48:52;3.92;;;1.17;;
20697;SDS011;10508;50.956;4.640;2023-03-23T15:51:21;16.88;;;1.85;;
20697;SDS011;10508;50.956;4.640;2023-03-23T15:53:50;6.28;;;1.55;;
20697;SDS011;10508;50.956;4.640;2023-03-23T15:56:16;7.15;;;1.80;;
20697;SDS011;10508;50.956;4.640;2023-03-23T15:58:43;5.40;;;1.60;;
20697;SDS011;10508;50.956;4.640;2023-03-23T16:01:11;7.15;;;2.17;;
20697;SDS011;10508;50.956;4.640;2023-03-23T16:03:47;12.48;;;2.05;;
20697;SDS011;10508;50.956;4.640;2023-03-23T16:06:17;14.93;;;2.35;;
20697;SDS011;10508;50.956;4.640;2023-03-23T16:08:43;10.00;;;1.92;;
20697;SDS011;10508;50.956;4.640;2023-03-23T16:11:13;10.18;;;1.95;;
20697;SDS011;10508;50.956;4.640;2023-03-23T16:13:41;5.70;;;1.55;;
20697;SDS011;10508;50.956;4.640;2023-03-23T16:16:15;7.03;;;1.77;;
20697;SDS011;10508;50.956;4.640;2023-03-23T16:18:47;7.90;;;2.50;;
20697;SDS011;10508;50.956;4.640;2023-03-23T16:21:13;8.10;;;2.47;;
20697;SDS011;10508;50.956;4.640;2023-03-23T16:23:39;10.68;;;2.25;;
20697;SDS011;10508;50.956;4.640;2023-03-23T16:26:08;12.55;;;2.80;;
20697;SDS011;10508;50.956;4.640;2023-03-23T16:28:34;9.20;;;2.20;;
20697;SDS011;10508;50.956;4.640;2023-03-23T16:31:00;7.50;;;1.95;;
20697;SDS011;10508;50.956;4.640;2023-03-23T16:33:26;10.70;;;2.15;;
20697;SDS011;10508;50.956;4.640;2023-03-23T16:35:51;11.07;;;1.90;;
20697;SDS011;10508;50.956;4.640;2023-03-23T16:38:17;13.32;;;2.38;;
20697;SDS011;10508;50.956;4.640;2023-03-23T16:40:43;21.90;;;2.60;;
20697;SDS011;10508;50.956;4.640;2023-03-23T16:43:10;5.97;;;1.58;;
20697;SDS011;10508;50.956;4.640;2023-03-23T16:45:37;7.78;;;1.98;;
20697;SDS011;10508;50.956;4.640;2023-03-23T16:48:05;5.63;;;1.15;;
20697;SDS011;10508;50.956;4.640;2023-03-23T16:50:32;6.35;;;1.20;;
20697;SDS011;10508;50.956;4.640;2023-03-23T16:52:58;17.65;;;2.67;;
20697;SDS011;10508;50.956;4.640;2023-03-23T16:55:24;9.15;;;1.67;;
20697;SDS011;10508;50.956;4.640;2023-03-23T16:57:51;4.78;;;1.33;;
20697;SDS011;10508;50.956;4.640;2023-03-23T17:00:36;5.97;;;1.45;;
20697;SDS011;10508;50.956;4.640;2023-03-23T17:03:02;9.45;;;1.70;;
20697;SDS011;10508;50.956;4.640;2023-03-23T17:05:29;3.13;;;1.30;;
20697;SDS011;10508;50.956;4.640;2023-03-23T17:07:55;5.05;;;1.40;;
20697;SDS011;10508;50.956;4.640;2023-03-23T17:10:22;8.15;;;1.65;;
20697;SDS011;10508;50.956;4.640;2023-03-23T17:12:49;5.28;;;1.45;;